Bertrange, Luxembourg
Current Conditions -  °F | °C
As of 2:50 AM on Monday 22 Dec 2014 (Local Time) from ELLX Reporting Station
Broken Clouds Broken Clouds  
Wind Chill: 33°   Ceiling: 900
Heat Index: 41°   Visibility: 6mi
Dew Point: 39°   Wind: 15mph
Humidity: 93%   Direction: 230°SW
Pressure: 30.33"   Gusts: NA
Location:  49.61°N, 6.05°E
Report Text: ELLX 220150Z 23013KT 200V270 9999 BKN009 05/04 Q1027 NOSIG
Loading
Personal Weather Stations






























Interactive Weather Map New forecast layout! Learn more

10-Day Weather Forecast

Advertisements
Track Severe Weather on mobile